createdAt,value
2023-06-11T00:00:36.748Z,18.53
2023-06-11T00:03:05.695Z,18.48
2023-06-11T00:05:33.457Z,18.47
2023-06-11T00:08:02.157Z,18.49
2023-06-11T00:10:29.672Z,18.51
2023-06-11T00:12:57.070Z,18.51
2023-06-11T00:15:24.545Z,18.50
2023-06-11T00:17:52.068Z,18.50
2023-06-11T00:20:19.527Z,18.52
2023-06-11T00:22:46.936Z,18.56
2023-06-11T00:25:14.505Z,18.58
2023-06-11T00:27:42.121Z,18.55
2023-06-11T00:30:09.833Z,18.45
2023-06-11T00:32:37.325Z,18.33
2023-06-11T00:35:08.115Z,18.28
2023-06-11T00:37:37.080Z,18.26
2023-06-11T00:40:05.182Z,18.25
2023-06-11T00:42:34.951Z,18.22
2023-06-11T00:45:04.954Z,18.16
2023-06-11T00:47:33.195Z,18.12
2023-06-11T00:50:01.761Z,18.12
2023-06-11T00:52:29.364Z,18.17
2023-06-11T00:54:59.447Z,18.20
2023-06-11T00:57:27.525Z,18.16
2023-06-11T00:59:55.675Z,18.10
2023-06-11T01:02:40.222Z,18.13
2023-06-11T01:05:09.096Z,18.20
2023-06-11T01:07:37.528Z,18.25
2023-06-11T01:10:06.053Z,18.26
2023-06-11T01:12:36.723Z,18.25
2023-06-11T01:15:04.469Z,18.26
2023-06-11T01:17:42.477Z,18.28
2023-06-11T01:20:41.055Z,18.26
2023-06-11T01:23:32.735Z,18.15
2023-06-11T01:26:13.804Z,18.04
2023-06-11T01:28:42.402Z,17.99
2023-06-11T01:31:12.729Z,17.98
2023-06-11T01:33:40.203Z,17.98
2023-06-11T01:36:12.100Z,17.95
2023-06-11T01:38:43.631Z,17.87
2023-06-11T01:41:31.511Z,17.74
2023-06-11T01:43:59.371Z,17.69
2023-06-11T01:46:27.563Z,17.71
2023-06-11T01:48:55.342Z,17.74
2023-06-11T01:51:23.278Z,17.74
2023-06-11T01:53:50.944Z,17.75
2023-06-11T01:56:18.384Z,17.77
2023-06-11T01:58:46.823Z,17.82
2023-06-11T02:01:14.787Z,17.87
2023-06-11T02:03:42.544Z,17.88
2023-06-11T02:06:10.068Z,17.83
2023-06-11T02:08:37.639Z,17.73
2023-06-11T02:11:05.167Z,17.67
2023-06-11T02:13:32.696Z,17.65
2023-06-11T02:16:00.350Z,17.67
2023-06-11T02:18:27.878Z,17.68
2023-06-11T02:20:55.549Z,17.66
2023-06-11T02:23:23.087Z,17.61
2023-06-11T02:25:50.743Z,17.60
2023-06-11T02:28:18.421Z,17.61
2023-06-11T02:30:45.939Z,17.64
2023-06-11T02:33:13.414Z,17.65
2023-06-11T02:35:40.833Z,17.66
2023-06-11T02:38:08.353Z,17.64
2023-06-11T02:40:35.810Z,17.62
2023-06-11T02:43:03.289Z,17.61
2023-06-11T02:45:30.833Z,17.66
2023-06-11T02:47:58.327Z,17.69
2023-06-11T02:50:25.812Z,17.69
2023-06-11T02:52:53.317Z,17.67
2023-06-11T02:55:20.799Z,17.67
2023-06-11T02:57:48.217Z,17.69
2023-06-11T03:00:15.885Z,17.74
2023-06-11T03:02:43.546Z,17.80
2023-06-11T03:05:13.926Z,17.82
2023-06-11T03:07:41.938Z,17.84
2023-06-11T03:10:10.381Z,17.91
2023-06-11T03:12:37.881Z,17.99
2023-06-11T03:15:06.959Z,18.06
2023-06-11T03:17:34.428Z,18.10
2023-06-11T03:20:01.991Z,18.12
2023-06-11T03:22:29.549Z,18.11
2023-06-11T03:24:57.094Z,18.09
2023-06-11T03:27:31.498Z,18.05
2023-06-11T03:29:58.886Z,18.02
2023-06-11T03:32:26.795Z,18.01
2023-06-11T03:34:54.467Z,18.01
2023-06-11T03:37:23.125Z,18.01
2023-06-11T03:39:52.800Z,18.05
2023-06-11T03:42:20.307Z,18.12
2023-06-11T03:44:48.001Z,18.19
2023-06-11T03:47:16.040Z,18.22
2023-06-11T03:49:44.587Z,18.24
2023-06-11T03:52:12.120Z,18.24
2023-06-11T03:54:39.700Z,18.30
2023-06-11T03:57:07.478Z,18.35
2023-06-11T03:59:35.077Z,18.37
2023-06-11T04:02:02.604Z,18.38
2023-06-11T04:04:30.690Z,18.40
2023-06-11T04:06:58.317Z,18.43
2023-06-11T04:09:27.622Z,18.47
2023-06-11T04:11:55.030Z,18.53
2023-06-11T04:14:22.594Z,18.55
2023-06-11T04:16:50.619Z,18.54
2023-06-11T04:19:19.467Z,18.54
2023-06-11T04:21:47.848Z,18.57
2023-06-11T04:24:15.283Z,18.58
2023-06-11T04:26:44.475Z,18.56
2023-06-11T04:29:14.561Z,18.51
2023-06-11T04:31:43.235Z,18.43
2023-06-11T04:34:12.061Z,18.35
2023-06-11T04:39:05.188Z,18.28
2023-06-11T04:41:38.804Z,18.16
2023-06-11T04:44:07.132Z,18.04
2023-06-11T04:46:35.687Z,18.02
2023-06-11T04:49:08.176Z,18.04
2023-06-11T04:51:42.020Z,18.07
2023-06-11T04:54:10.494Z,18.07
2023-06-11T04:56:44.506Z,18.06
2023-06-11T04:59:12.286Z,18.09
2023-06-11T05:01:48.064Z,18.12
2023-06-11T05:04:18.725Z,18.10
2023-06-11T05:06:48.542Z,18.07
2023-06-11T05:09:22.358Z,18.05
2023-06-11T05:11:51.844Z,18.03
2023-06-11T05:14:20.253Z,17.99
2023-06-11T05:16:51.762Z,17.92
2023-06-11T05:19:19.498Z,17.89
2023-06-11T05:21:50.129Z,17.87
2023-06-11T05:24:21.732Z,17.90
2023-06-11T05:26:56.618Z,17.95
2023-06-11T05:29:25.983Z,17.96
2023-06-11T05:31:54.364Z,17.95
2023-06-11T05:34:22.276Z,17.94
2023-06-11T05:36:56.738Z,17.95
2023-06-11T05:39:24.415Z,17.99
2023-06-11T05:41:52.156Z,18.00
2023-06-11T05:44:22.753Z,17.96
2023-06-11T05:46:51.409Z,17.90
2023-06-11T05:49:19.324Z,17.92
2023-06-11T05:51:47.101Z,17.96
2023-06-11T05:54:14.889Z,17.95
2023-06-11T05:56:42.326Z,17.94
2023-06-11T05:59:10.500Z,17.91
2023-06-11T06:01:38.357Z,17.93
2023-06-11T06:04:05.918Z,17.94
2023-06-11T06:06:34.192Z,17.94
2023-06-11T06:09:02.172Z,17.93
2023-06-11T06:11:31.228Z,17.91
2023-06-11T06:13:59.368Z,17.94
2023-06-11T06:16:28.851Z,18.00
2023-06-11T06:25:49.175Z,18.02
2023-06-11T06:28:18.520Z,18.02
2023-06-11T06:30:46.174Z,18.09
2023-06-11T06:33:14.555Z,18.14
2023-06-11T06:35:42.409Z,18.18
2023-06-11T06:38:10.110Z,18.20
2023-06-11T06:40:38.132Z,18.20
2023-06-11T06:43:06.181Z,18.21
2023-06-11T06:45:36.219Z,18.23
2023-06-11T06:48:10.807Z,18.27
2023-06-11T06:50:38.762Z,18.28
2023-06-11T06:53:08.219Z,18.28
2023-06-11T06:55:36.645Z,18.33
2023-06-11T06:58:06.426Z,18.41
2023-06-11T07:00:34.512Z,18.45
2023-06-11T07:03:02.258Z,18.46
2023-06-11T07:05:30.266Z,18.48
2023-06-11T07:07:59.103Z,18.55
2023-06-11T07:10:27.850Z,18.65
2023-06-11T07:12:56.617Z,18.70
2023-06-11T07:15:26.426Z,18.69
2023-06-11T07:17:54.074Z,18.68
2023-06-11T07:20:21.652Z,18.71
2023-06-11T07:22:49.248Z,18.78
2023-06-11T07:25:17.753Z,18.82
2023-06-11T07:27:45.309Z,18.82
2023-06-11T07:30:13.638Z,18.80
2023-06-11T07:32:42.684Z,18.82
2023-06-11T07:35:10.516Z,18.88
2023-06-11T07:37:37.994Z,18.89
2023-06-11T07:40:06.529Z,18.86
2023-06-11T07:42:33.997Z,18.83
2023-06-11T07:45:01.400Z,18.88
2023-06-11T07:47:28.875Z,18.92
2023-06-11T07:49:56.591Z,18.95
2023-06-11T07:52:24.064Z,18.93
2023-06-11T07:54:51.652Z,18.90
2023-06-11T07:57:19.086Z,18.91
2023-06-11T07:59:46.472Z,18.92
2023-06-11T08:02:14.214Z,18.93
2023-06-11T08:04:41.853Z,18.89
2023-06-11T08:07:09.350Z,18.81
2023-06-11T08:09:37.246Z,18.79
2023-06-11T08:12:09.687Z,18.86
2023-06-11T08:14:37.198Z,18.95
2023-06-11T08:17:04.859Z,19.00
2023-06-11T08:19:32.478Z,19.00
2023-06-11T08:22:01.265Z,19.00
2023-06-11T08:24:28.735Z,19.06
2023-06-11T08:26:56.725Z,19.14
2023-06-11T08:29:24.183Z,19.20
2023-06-11T08:31:51.925Z,19.22
2023-06-11T08:34:19.463Z,19.24
2023-06-11T08:36:47.112Z,19.28
2023-06-11T08:39:14.699Z,19.33
2023-06-11T08:41:42.271Z,19.36
2023-06-11T08:44:09.802Z,19.36
2023-06-11T08:46:37.477Z,19.31
2023-06-11T08:49:08.471Z,19.26
2023-06-11T08:51:38.336Z,19.23
2023-06-11T08:54:11.685Z,19.25
2023-06-11T08:56:39.528Z,19.28
2023-06-11T08:59:07.423Z,19.26
2023-06-11T09:01:35.092Z,19.21
2023-06-11T09:04:02.959Z,19.20
2023-06-11T09:06:31.165Z,19.28
2023-06-11T09:09:06.681Z,19.39
2023-06-11T09:11:38.073Z,19.48
2023-06-11T09:14:06.793Z,19.52
2023-06-11T09:16:41.292Z,19.54
2023-06-11T09:19:20.984Z,19.56
2023-06-11T09:21:52.756Z,19.62
2023-06-11T09:24:21.185Z,19.69
2023-06-11T09:26:57.604Z,19.74
2023-06-11T09:29:26.471Z,19.77
2023-06-11T09:32:16.304Z,19.75
2023-06-11T09:35:00.463Z,19.76
2023-06-11T09:37:28.122Z,19.82
2023-06-11T09:39:55.541Z,19.90
2023-06-11T09:42:28.242Z,19.91
2023-06-11T09:45:00.420Z,19.92
2023-06-11T09:47:34.498Z,19.93
2023-06-11T09:50:02.876Z,19.93
2023-06-11T09:52:30.736Z,19.98
2023-06-11T09:54:58.448Z,20.06
2023-06-11T09:57:25.961Z,20.12
2023-06-11T09:59:53.453Z,20.14
2023-06-11T10:02:20.956Z,20.12
2023-06-11T10:04:48.527Z,20.06
2023-06-11T10:07:16.074Z,19.99
2023-06-11T10:09:43.511Z,19.99
2023-06-11T10:12:16.252Z,20.03
2023-06-11T10:14:52.541Z,20.04
2023-06-11T10:17:22.609Z,20.04
2023-06-11T10:19:50.315Z,20.04
2023-06-11T10:22:36.741Z,20.04
2023-06-11T10:25:05.093Z,20.07
2023-06-11T10:27:37.243Z,20.17
2023-06-11T10:30:07.790Z,20.30
2023-06-11T10:32:35.546Z,20.35
2023-06-11T10:35:05.896Z,20.35
2023-06-11T10:37:38.902Z,20.38
2023-06-11T10:40:07.358Z,20.43
2023-06-11T10:42:39.612Z,20.46
2023-06-11T10:45:09.287Z,20.53
2023-06-11T10:47:44.496Z,20.63
2023-06-11T10:50:13.774Z,20.76
2023-06-11T10:52:59.333Z,20.86
2023-06-11T10:55:30.642Z,20.92
2023-06-11T10:57:58.580Z,20.91
2023-06-11T11:00:29.763Z,20.81
2023-06-11T11:03:01.086Z,20.68
2023-06-11T11:05:32.214Z,20.44
2023-06-11T11:08:02.800Z,20.13
2023-06-11T11:10:30.628Z,19.90
2023-06-11T11:12:58.248Z,19.76
2023-06-11T11:15:25.659Z,19.64
2023-06-11T11:17:53.091Z,19.53
2023-06-11T11:20:21.307Z,19.45
2023-06-11T11:22:53.583Z,19.42
2023-06-11T11:25:22.274Z,19.40
2023-06-11T11:27:49.984Z,19.33
2023-06-11T11:30:17.919Z,19.24
2023-06-11T11:32:45.682Z,19.19
2023-06-11T11:35:17.194Z,19.16
2023-06-11T11:37:52.414Z,19.15
2023-06-11T11:40:20.834Z,19.13
2023-06-11T11:42:48.329Z,19.04
2023-06-11T11:45:16.036Z,18.94
2023-06-11T11:47:54.074Z,18.88
2023-06-11T11:50:29.273Z,18.82
2023-06-11T11:53:07.031Z,18.86
2023-06-11T11:55:39.972Z,18.90
2023-06-11T11:58:16.700Z,18.88
2023-06-11T12:00:54.878Z,18.83
2023-06-11T12:03:23.155Z,18.86
2023-06-11T12:06:00.142Z,18.92
2023-06-11T12:08:29.458Z,18.87
2023-06-11T12:10:57.684Z,18.76
2023-06-11T12:13:25.589Z,18.73
2023-06-11T12:15:53.196Z,18.74
2023-06-11T12:18:21.189Z,18.73
2023-06-11T12:20:49.106Z,18.66
2023-06-11T12:23:16.865Z,18.46
2023-06-11T12:25:44.681Z,18.26
2023-06-11T12:28:12.358Z,18.12
2023-06-11T12:30:41.741Z,18.03
2023-06-11T12:33:09.309Z,17.93
2023-06-11T12:35:37.495Z,17.80
2023-06-11T12:38:06.313Z,17.77
2023-06-11T12:40:33.861Z,17.74
2023-06-11T12:43:02.075Z,17.67
2023-06-11T12:45:31.646Z,17.58
2023-06-11T12:47:59.349Z,17.54
2023-06-11T12:50:27.841Z,17.55
2023-06-11T12:52:56.384Z,17.51
2023-06-11T12:55:25.866Z,17.45
2023-06-11T12:57:53.454Z,17.38
2023-06-11T13:00:23.312Z,17.36
2023-06-11T13:02:51.060Z,17.35
2023-06-11T13:05:18.918Z,17.38
2023-06-11T13:07:46.599Z,17.43
2023-06-11T13:10:14.433Z,17.47
2023-06-11T13:12:42.127Z,17.55
2023-06-11T13:15:10.560Z,17.64
2023-06-11T13:17:38.019Z,17.68
2023-06-11T13:20:06.418Z,17.68
2023-06-11T13:22:33.793Z,17.62
2023-06-11T13:25:01.417Z,17.55
2023-06-11T13:27:28.826Z,17.45
2023-06-11T13:29:57.048Z,17.36
2023-06-11T13:32:24.603Z,17.28
2023-06-11T13:34:52.724Z,17.19
2023-06-11T13:37:20.647Z,17.17
2023-06-11T13:39:48.103Z,17.16
2023-06-11T13:42:15.594Z,17.15
2023-06-11T13:44:46.774Z,17.13
2023-06-11T13:47:14.411Z,17.09
2023-06-11T13:49:44.367Z,17.08
2023-06-11T13:52:11.746Z,17.10
2023-06-11T13:54:41.505Z,17.04
2023-06-11T13:57:09.834Z,16.95
2023-06-11T13:59:38.453Z,16.91
2023-06-11T14:02:06.078Z,16.87
2023-06-11T14:04:33.643Z,16.88
2023-06-11T14:07:02.233Z,16.83
2023-06-11T14:09:29.933Z,16.79
2023-06-11T14:11:57.478Z,16.83
2023-06-11T14:14:25.806Z,16.93
2023-06-11T14:16:53.297Z,16.93
2023-06-11T14:19:21.045Z,16.84
2023-06-11T14:21:48.452Z,16.76
2023-06-11T14:24:15.886Z,16.73
2023-06-11T14:26:43.296Z,16.73
2023-06-11T14:29:11.228Z,16.68
2023-06-11T14:31:38.656Z,16.64
2023-06-11T14:34:06.151Z,16.66
2023-06-11T14:36:35.297Z,16.70
2023-06-11T14:39:02.708Z,16.66
2023-06-11T14:41:30.172Z,16.56
2023-06-11T14:43:57.655Z,16.47
2023-06-11T14:46:25.110Z,16.46
2023-06-11T14:48:52.711Z,16.47
2023-06-11T14:51:20.219Z,16.45
2023-06-11T14:53:47.621Z,16.36
2023-06-11T14:56:15.103Z,16.25
2023-06-11T14:58:42.501Z,16.14
2023-06-11T15:01:10.725Z,16.04
2023-06-11T15:03:38.245Z,15.96
2023-06-11T15:06:06.539Z,15.90
2023-06-11T15:08:34.375Z,15.89
2023-06-11T15:11:07.092Z,15.89
2023-06-11T15:13:34.846Z,15.83
2023-06-11T15:16:02.340Z,15.75
2023-06-11T15:18:29.870Z,15.73
2023-06-11T15:20:57.438Z,15.76
2023-06-11T15:23:25.041Z,15.81
2023-06-11T15:25:53.128Z,15.83
2023-06-11T15:28:21.673Z,15.80
2023-06-11T15:30:49.124Z,15.79
2023-06-11T15:33:16.756Z,15.80
2023-06-11T15:35:44.661Z,15.76
2023-06-11T15:38:12.053Z,15.69
2023-06-11T15:40:39.437Z,15.65
2023-06-11T15:43:06.959Z,15.67
2023-06-11T15:45:39.249Z,15.69
2023-06-11T15:48:06.734Z,15.68
2023-06-11T15:50:34.140Z,15.67
2023-06-11T15:53:01.587Z,15.67
2023-06-11T15:55:30.442Z,15.69
2023-06-11T15:57:57.946Z,15.66
2023-06-11T16:00:25.548Z,15.60
2023-06-11T16:02:52.959Z,15.53
2023-06-11T16:05:20.466Z,15.50
2023-06-11T16:07:47.902Z,15.53
2023-06-11T16:10:15.796Z,15.56
2023-06-11T16:12:45.903Z,15.51
2023-06-11T16:15:13.563Z,15.48
2023-06-11T16:17:45.497Z,15.48
2023-06-11T16:20:15.404Z,15.49
2023-06-11T16:22:43.407Z,15.54
2023-06-11T16:25:11.970Z,15.56
2023-06-11T16:27:40.181Z,15.51
2023-06-11T16:30:08.961Z,15.43
2023-06-11T16:32:39.698Z,15.37
2023-06-11T16:35:08.233Z,15.39
2023-06-11T16:37:35.986Z,15.42
2023-06-11T16:40:08.191Z,15.42
2023-06-11T16:42:35.724Z,15.40
2023-06-11T16:45:03.276Z,15.36
2023-06-11T16:47:30.734Z,15.40
2023-06-11T16:49:59.888Z,15.43
2023-06-11T16:52:29.883Z,15.39
2023-06-11T16:56:44.977Z,15.33
2023-06-11T16:59:12.580Z,15.35
2023-06-11T17:01:40.109Z,15.41
2023-06-11T17:04:08.595Z,15.47
2023-06-11T17:06:36.937Z,15.46
2023-06-11T17:09:04.940Z,15.36
2023-06-11T17:11:32.546Z,15.21
2023-06-11T17:14:00.571Z,15.16
2023-06-11T17:16:31.565Z,15.15
2023-06-11T17:18:59.115Z,15.08
2023-06-11T17:21:26.774Z,14.98
2023-06-11T17:23:58.405Z,14.87
2023-06-11T17:26:28.432Z,14.85
2023-06-11T17:28:55.882Z,14.84
2023-06-11T17:31:23.633Z,14.79
2023-06-11T17:33:51.141Z,14.70
2023-06-11T17:36:18.573Z,14.62
2023-06-11T17:38:46.204Z,14.62
2023-06-11T17:41:14.233Z,14.61
2023-06-11T17:43:41.854Z,14.52
2023-06-11T17:46:13.921Z,14.43
2023-06-11T17:48:42.034Z,14.41
2023-06-11T17:51:09.739Z,14.44
2023-06-11T17:53:37.142Z,14.47
2023-06-11T17:56:05.376Z,14.46
2023-06-11T17:58:34.919Z,14.41
2023-06-11T18:01:04.804Z,14.38
2023-06-11T18:03:33.171Z,14.37
2023-06-11T18:06:03.370Z,14.32
2023-06-11T18:08:30.772Z,14.23
2023-06-11T18:10:58.501Z,14.16
2023-06-11T18:13:25.942Z,14.15
2023-06-11T18:15:53.440Z,14.13
2023-06-11T18:18:21.332Z,14.10
2023-06-11T18:20:51.190Z,14.05
2023-06-11T18:23:19.679Z,14.02
2023-06-11T18:25:47.521Z,14.02
2023-06-11T18:28:15.188Z,14.05
2023-06-11T18:30:42.769Z,14.11
2023-06-11T18:33:10.271Z,14.11
2023-06-11T18:35:38.321Z,14.04
2023-06-11T18:38:05.872Z,13.97
2023-06-11T18:40:33.369Z,13.98
2023-06-11T18:43:02.880Z,14.01
2023-06-11T18:45:31.174Z,14.04
2023-06-11T18:47:58.800Z,14.03
2023-06-11T18:50:27.835Z,13.99
2023-06-11T18:52:55.489Z,14.03
2023-06-11T18:55:23.380Z,14.06
2023-06-11T18:57:51.574Z,14.04
2023-06-11T19:00:19.144Z,14.01
2023-06-11T19:02:47.054Z,14.00
2023-06-11T19:05:14.729Z,14.06
2023-06-11T19:07:42.167Z,14.08
2023-06-11T19:10:13.598Z,14.05
2023-06-11T19:12:41.294Z,13.97
2023-06-11T19:15:09.659Z,13.89
2023-06-11T19:17:37.443Z,13.90
2023-06-11T19:20:06.997Z,13.99
2023-06-11T19:22:34.854Z,13.99
2023-06-11T19:25:02.327Z,13.95
2023-06-11T19:27:30.558Z,13.92
2023-06-11T19:29:57.988Z,13.98
2023-06-11T19:32:25.436Z,14.03
2023-06-11T19:34:52.933Z,14.00
2023-06-11T19:37:20.394Z,13.90
2023-06-11T19:39:47.818Z,13.82
2023-06-11T19:42:15.279Z,13.82
2023-06-11T19:44:43.393Z,13.88
2023-06-11T19:47:10.917Z,13.92
2023-06-11T19:49:38.550Z,13.95
2023-06-11T19:52:06.584Z,13.99
2023-06-11T19:54:49.900Z,14.06
2023-06-11T19:57:19.996Z,14.15
2023-06-11T19:59:48.184Z,14.16
2023-06-11T20:02:15.948Z,14.10
2023-06-11T20:04:43.441Z,14.04
2023-06-11T20:07:10.838Z,14.04
2023-06-11T20:09:38.335Z,14.07
2023-06-11T20:12:08.627Z,14.11
2023-06-11T20:14:36.635Z,14.11
2023-06-11T20:17:04.893Z,14.10
2023-06-11T20:19:35.130Z,14.11
2023-06-11T20:22:04.259Z,14.16
2023-06-11T20:24:32.920Z,14.19
2023-06-11T20:27:00.643Z,14.20
2023-06-11T20:29:28.383Z,14.16
2023-06-11T20:31:55.935Z,14.08
2023-06-11T20:34:23.425Z,14.06
2023-06-11T20:36:51.007Z,14.06
2023-06-11T20:39:18.638Z,14.02
2023-06-11T20:41:46.127Z,13.97
2023-06-11T20:44:13.847Z,13.88
2023-06-11T20:46:41.501Z,13.84
2023-06-11T20:49:09.843Z,13.80
2023-06-11T20:51:39.371Z,13.74
2023-06-11T20:54:06.778Z,13.66
2023-06-11T20:56:34.334Z,13.58
2023-06-11T20:59:02.497Z,13.60
2023-06-11T21:01:30.541Z,13.62
2023-06-11T21:03:58.070Z,13.58
2023-06-11T21:06:25.623Z,13.55
2023-06-11T21:08:53.022Z,13.56
2023-06-11T21:11:20.439Z,13.64
2023-06-11T21:13:56.599Z,13.70
2023-06-11T21:16:31.622Z,13.69
2023-06-11T21:19:00.107Z,13.63
2023-06-11T21:21:27.624Z,13.57
2023-06-11T21:23:55.251Z,13.63
2023-06-11T21:26:22.693Z,13.69
2023-06-11T21:28:50.091Z,13.64
2023-06-11T21:31:17.805Z,13.51
2023-06-11T21:33:45.274Z,13.42
2023-06-11T21:36:12.738Z,13.40
2023-06-11T21:38:40.164Z,13.44
2023-06-11T21:41:07.582Z,13.45
2023-06-11T21:43:34.973Z,13.44
2023-06-11T21:46:02.460Z,13.41
2023-06-11T21:48:29.837Z,13.43
2023-06-11T21:50:57.768Z,13.44
2023-06-11T21:53:25.268Z,13.40
2023-06-11T21:55:52.726Z,13.34
2023-06-11T21:58:20.057Z,13.28
2023-06-11T22:00:47.499Z,13.31
2023-06-11T22:03:19.903Z,13.35
2023-06-11T22:05:47.461Z,13.35
2023-06-11T22:08:15.149Z,13.25
2023-06-11T22:10:42.541Z,13.18
2023-06-11T22:13:09.912Z,13.10
2023-06-11T22:15:37.331Z,13.09
2023-06-11T22:18:05.374Z,12.99
2023-06-11T22:20:33.614Z,12.88
2023-06-11T22:23:01.234Z,12.76
2023-06-11T22:25:28.721Z,12.74
2023-06-11T22:27:56.423Z,12.77
2023-06-11T22:30:24.112Z,12.82
2023-06-11T22:32:51.567Z,12.84
2023-06-11T22:35:19.177Z,12.86
2023-06-11T22:37:46.683Z,12.91
2023-06-11T22:40:14.292Z,12.94
2023-06-11T22:42:41.864Z,12.87
2023-06-11T22:45:09.583Z,12.76
2023-06-11T22:47:37.635Z,12.64
2023-06-11T22:50:06.391Z,12.62
2023-06-11T22:52:39.582Z,12.63
2023-06-11T22:55:08.404Z,12.63
2023-06-11T22:57:36.069Z,12.63
2023-06-11T23:00:04.145Z,12.58
2023-06-11T23:02:31.717Z,12.59
2023-06-11T23:04:59.316Z,12.68
2023-06-11T23:07:28.485Z,12.75
2023-06-11T23:09:56.089Z,12.80
2023-06-11T23:12:23.482Z,12.82
2023-06-11T23:14:50.954Z,12.87
2023-06-11T23:17:20.690Z,12.93
2023-06-11T23:19:48.268Z,12.93
2023-06-11T23:22:15.772Z,12.88
2023-06-11T23:24:46.074Z,12.75
2023-06-11T23:27:16.365Z,12.66
2023-06-11T23:29:44.810Z,12.64
2023-06-11T23:32:12.306Z,12.63
2023-06-11T23:34:39.809Z,12.65
2023-06-11T23:37:07.699Z,12.62
2023-06-11T23:39:35.199Z,12.54
2023-06-11T23:42:03.094Z,12.45
2023-06-11T23:44:30.636Z,12.47
2023-06-11T23:46:58.034Z,12.57
2023-06-11T23:49:25.513Z,12.66
2023-06-11T23:51:52.922Z,12.70
2023-06-11T23:54:20.360Z,12.71
2023-06-11T23:56:47.992Z,12.72
2023-06-11T23:59:15.423Z,12.80
